Time;durP1;ratioP1;P1;durP2;ratioP2;P2;SDS_P1;SDS_P2;PMS_P1;PMS_P2;Temp;Humidity;BMP_temperature;BMP_pressure;BME280_temperature;BME280_humidity;BME280_pressure;Samples;Min_cycle;Max_cycle;Signal;HPM_P1;HPM_P2
2022/09/29 00:00:28;;;;;;;5.67;5.17;;;8.10;99.90;;;;;;5031316;28;20214;-65
2022/09/29 00:02:53;;;;;;;5.27;4.40;;;8.10;99.90;;;;;;5035890;28;20585;-65
2022/09/29 00:05:19;;;;;;;5.40;4.90;;;8.10;99.90;;;;;;5035639;28;20838;-65
2022/09/29 00:07:44;;;;;;;4.57;4.00;;;8.20;99.90;;;;;;5042931;28;20642;-65
2022/09/29 00:10:10;;;;;;;5.53;4.50;;;8.20;99.90;;;;;;5040356;28;20545;-65
2022/09/29 00:12:35;;;;;;;4.80;4.30;;;8.20;99.90;;;;;;5038138;28;20634;-65
2022/09/29 00:15:01;;;;;;;5.83;4.40;;;8.20;99.90;;;;;;5040049;28;20288;-65
2022/09/29 00:17:27;;;;;;;4.23;3.93;;;8.20;99.90;;;;;;5042663;28;20182;-64
2022/09/29 00:19:53;;;;;;;5.70;4.30;;;8.20;99.90;;;;;;5037755;28;20198;-65
2022/09/29 00:22:18;;;;;;;5.07;4.57;;;8.20;99.90;;;;;;5042368;28;20638;-65
2022/09/29 00:24:46;;;;;;;6.30;5.27;;;8.20;99.90;;;;;;5037409;28;20457;-65
2022/09/29 00:27:16;;;;;;;4.43;4.00;;;8.20;99.90;;;;;;5039238;28;20273;-66
2022/09/29 00:29:42;;;;;;;5.67;4.60;;;8.10;99.90;;;;;;5038465;28;20487;-65
2022/09/29 00:32:08;;;;;;;6.50;5.33;;;8.10;99.90;;;;;;5040333;28;20472;-65
2022/09/29 00:34:33;;;;;;;8.40;5.20;;;8.20;99.90;;;;;;5042809;28;20201;-65
2022/09/29 00:36:59;;;;;;;5.70;5.10;;;8.20;99.90;;;;;;5039805;28;20678;-65
2022/09/29 00:39:24;;;;;;;6.20;5.20;;;8.20;99.90;;;;;;5031725;28;20214;-65
2022/09/29 00:41:50;;;;;;;6.33;4.73;;;8.20;99.90;;;;;;5020104;28;20186;-64
2022/09/29 00:44:18;;;;;;;4.70;4.30;;;8.20;99.90;;;;;;5030014;28;20336;-65
2022/09/29 00:47:15;;;;;;;5.57;5.07;;;8.20;99.90;;;;;;5031808;28;20444;-65
2022/09/29 00:49:49;;;;;;;5.17;4.67;;;8.00;99.90;;;;;;5014453;28;20933;-65
2022/09/29 00:52:28;;;;;;;6.23;4.40;;;8.20;99.90;;;;;;5040170;28;20447;-65
2022/09/29 00:54:59;;;;;;;5.30;4.77;;;8.20;99.90;;;;;;5037078;28;20605;-64
2022/09/29 00:57:30;;;;;;;6.43;4.20;;;8.20;99.90;;;;;;5039755;28;20915;-64
2022/09/29 01:00:00;;;;;;;4.80;4.40;;;8.30;99.90;;;;;;5038385;28;20472;-65
2022/09/29 01:02:25;;;;;;;5.17;4.67;;;8.30;99.90;;;;;;5039889;28;20528;-65
2022/09/29 01:04:53;;;;;;;5.53;4.87;;;8.30;99.90;;;;;;5042818;28;20538;-65
2022/09/29 01:07:22;;;;;;;4.47;3.90;;;8.30;99.90;;;;;;5033430;28;20643;-64
2022/09/29 01:09:50;;;;;;;4.50;4.10;;;8.30;99.90;;;;;;5039670;28;20432;-65
2022/09/29 01:12:17;;;;;;;5.93;4.50;;;8.40;99.90;;;;;;5029506;28;20783;-65
2022/09/29 01:14:43;;;;;;;4.53;4.13;;;8.40;99.90;;;;;;5029532;28;20965;-66
2022/09/29 01:17:09;;;;;;;5.73;4.73;;;8.50;99.90;;;;;;5028383;28;20444;-65
2022/09/29 01:19:57;;;;;;;4.90;4.50;;;8.50;99.90;;;;;;5023480;28;20471;-65
2022/09/29 01:22:26;;;;;;;9.40;5.37;;;8.50;99.90;;;;;;5027264;28;20183;-64
2022/09/29 01:25:24;;;;;;;5.20;4.70;;;8.50;99.90;;;;;;5032752;28;20479;-65
2022/09/29 01:28:05;;;;;;;5.63;4.30;;;8.50;99.90;;;;;;5036926;28;20460;-65
2022/09/29 01:30:58;;;;;;;4.77;4.37;;;8.50;99.90;;;;;;5040868;28;20440;-65
2022/09/29 01:33:50;;;;;;;4.20;3.80;;;8.50;99.90;;;;;;5040116;28;20439;-65
2022/09/29 01:36:39;;;;;;;4.37;3.97;;;8.50;99.90;;;;;;5035738;28;20448;-65
2022/09/29 01:39:30;;;;;;;6.13;4.10;;;8.50;99.90;;;;;;5039047;28;20460;-66
2022/09/29 01:42:07;;;;;;;7.23;4.17;;;8.50;99.90;;;;;;5034848;28;20520;-65
2022/09/29 01:44:36;;;;;;;6.37;4.70;;;8.50;99.90;;;;;;5027906;28;20457;-65
2022/09/29 01:47:10;;;;;;;5.10;4.30;;;8.60;99.90;;;;;;5029256;28;20598;-65
2022/09/29 01:49:42;;;;;;;5.13;4.50;;;8.60;99.90;;;;;;5027457;28;20440;-65
2022/09/29 01:52:10;;;;;;;5.47;4.30;;;8.60;99.90;;;;;;5029142;28;20452;-65
2022/09/29 01:54:45;;;;;;;4.20;3.77;;;8.60;99.90;;;;;;5018783;28;20563;-65
2022/09/29 01:57:28;;;;;;;4.27;3.83;;;8.60;99.90;;;;;;5029776;28;20443;-64
2022/09/29 02:00:08;;;;;;;4.73;4.27;;;8.60;99.90;;;;;;5036085;28;20495;-65
2022/09/29 02:02:42;;;;;;;4.80;3.70;;;8.60;99.90;;;;;;5031546;28;20491;-65
2022/09/29 02:05:14;;;;;;;4.27;3.97;;;8.60;99.90;;;;;;5037417;28;20838;-64
2022/09/29 02:07:44;;;;;;;6.60;4.43;;;8.60;99.90;;;;;;5035852;28;21014;-66
2022/09/29 02:10:16;;;;;;;5.93;4.10;;;8.60;99.90;;;;;;5034164;28;20495;-64
2022/09/29 02:12:47;;;;;;;8.43;4.07;;;8.60;99.90;;;;;;5030778;28;20485;-65
2022/09/29 02:15:21;;;;;;;5.53;3.67;;;8.60;99.90;;;;;;5041642;28;20884;-65
2022/09/29 02:17:50;;;;;;;4.50;4.10;;;8.60;99.90;;;;;;5036945;28;20495;-66
2022/09/29 02:20:17;;;;;;;5.73;5.33;;;8.70;99.90;;;;;;5038410;28;20469;-65
2022/09/29 02:22:43;;;;;;;4.30;3.83;;;8.70;99.90;;;;;;5037005;28;20441;-65
2022/09/29 02:25:11;;;;;;;5.10;4.40;;;8.70;99.90;;;;;;5032802;28;20835;-65
2022/09/29 02:27:37;;;;;;;4.90;4.20;;;8.70;99.90;;;;;;5031832;28;20201;-65
2022/09/29 02:30:05;;;;;;;6.20;5.57;;;8.70;99.90;;;;;;5033036;28;20451;-66
2022/09/29 02:32:33;;;;;;;4.70;4.30;;;8.70;99.90;;;;;;5032997;28;20444;-65
2022/09/29 02:35:00;;;;;;;5.70;5.20;;;8.70;99.90;;;;;;5033538;28;20468;-65
2022/09/29 02:37:35;;;;;;;4.90;4.43;;;8.70;99.90;;;;;;5031899;28;20444;-65
2022/09/29 02:40:35;;;;;;;8.00;4.60;;;8.80;99.90;;;;;;5028365;28;20475;-64
2022/09/29 02:43:17;;;;;;;4.10;3.70;;;8.70;99.90;;;;;;5026095;28;20477;-66
2022/09/29 02:45:51;;;;;;;4.80;4.30;;;8.70;99.90;;;;;;5031714;28;20444;-65
2022/09/29 02:48:40;;;;;;;6.20;4.70;;;8.70;99.90;;;;;;5030752;28;20455;-66
2022/09/29 02:51:12;;;;;;;4.13;3.73;;;8.80;99.90;;;;;;5026947;28;20441;-65
2022/09/29 02:54:02;;;;;;;5.53;5.03;;;8.70;99.90;;;;;;5032769;28;20467;-66
2022/09/29 02:56:33;;;;;;;5.40;4.07;;;8.70;99.90;;;;;;5032085;28;20848;-65
2022/09/29 02:59:02;;;;;;;4.27;3.97;;;8.70;99.90;;;;;;5031394;28;20460;-65
2022/09/29 03:01:32;;;;;;;4.77;4.37;;;8.70;99.90;;;;;;5031197;28;20825;-64
2022/09/29 03:03:58;;;;;;;4.90;3.83;;;8.70;99.90;;;;;;5030666;28;20456;-64
2022/09/29 03:06:23;;;;;;;4.03;3.60;;;8.80;99.90;;;;;;5033234;28;20534;-64
2022/09/29 03:08:49;;;;;;;4.80;3.97;;;8.80;99.90;;;;;;5030761;28;20181;-65
2022/09/29 03:11:14;;;;;;;4.53;3.93;;;8.80;99.90;;;;;;5033632;28;20182;-64
2022/09/29 03:13:40;;;;;;;5.27;4.40;;;8.80;99.90;;;;;;5032864;28;20194;-65
2022/09/29 03:16:06;;;;;;;4.47;4.00;;;8.70;99.90;;;;;;5031228;28;20198;-65
2022/09/29 03:18:31;;;;;;;5.77;4.50;;;8.70;99.90;;;;;;5030206;28;20667;-65
2022/09/29 03:20:57;;;;;;;4.10;3.70;;;8.70;99.90;;;;;;5031635;28;20216;-64
2022/09/29 03:23:22;;;;;;;4.37;3.97;;;8.60;99.90;;;;;;5031400;28;20175;-65
2022/09/29 03:25:48;;;;;;;9.23;3.93;;;8.50;99.90;;;;;;5031879;28;20198;-64
2022/09/29 03:28:15;;;;;;;4.83;4.43;;;8.50;99.90;;;;;;5030468;28;20250;-64
2022/09/29 03:30:41;;;;;;;5.13;4.60;;;8.40;99.90;;;;;;5030034;28;20180;-65
2022/09/29 03:33:06;;;;;;;5.17;3.97;;;8.40;99.90;;;;;;5030912;28;20437;-65
2022/09/29 03:35:32;;;;;;;4.37;4.07;;;8.40;99.90;;;;;;5031032;28;20261;-65
2022/09/29 03:37:59;;;;;;;4.80;4.40;;;8.30;99.90;;;;;;5031623;28;20182;-65
2022/09/29 03:40:26;;;;;;;5.80;4.50;;;8.20;99.90;;;;;;5031540;28;20621;-64
2022/09/29 03:42:51;;;;;;;5.33;4.70;;;8.10;99.90;;;;;;5031199;28;20448;-65
2022/09/29 03:45:17;;;;;;;4.90;4.13;;;8.10;99.90;;;;;;5031499;28;20551;-65
2022/09/29 03:47:42;;;;;;;4.93;4.50;;;8.00;99.90;;;;;;5029239;28;20183;-66
2022/09/29 03:50:08;;;;;;;5.17;3.80;;;8.00;99.90;;;;;;5032312;28;20190;-65
2022/09/29 03:52:34;;;;;;;4.30;3.90;;;7.90;99.90;;;;;;5031629;28;20201;-64
2022/09/29 03:54:59;;;;;;;5.20;3.60;;;7.90;99.90;;;;;;5031980;28;20500;-64
2022/09/29 03:57:25;;;;;;;7.63;4.50;;;7.80;99.90;;;;;;5029953;28;20209;-64
2022/09/29 03:59:52;;;;;;;5.10;4.47;;;7.80;99.90;;;;;;5030565;28;20744;-64
2022/09/29 04:02:18;;;;;;;4.00;3.60;;;7.70;99.90;;;;;;5031138;28;20297;-65
2022/09/29 04:04:44;;;;;;;5.17;4.67;;;7.70;99.90;;;;;;5030734;28;21144;-64
2022/09/29 04:07:10;;;;;;;6.00;4.80;;;7.60;99.90;;;;;;5030359;28;20448;-65
2022/09/29 04:09:36;;;;;;;4.40;4.00;;;7.60;99.90;;;;;;5028020;28;20236;-63
2022/09/29 04:12:01;;;;;;;5.00;4.50;;;7.60;99.90;;;;;;5027250;28;20183;-65
2022/09/29 04:14:27;;;;;;;5.67;4.60;;;7.50;99.90;;;;;;5033521;28;20222;-66
2022/09/29 04:16:52;;;;;;;4.93;4.33;;;7.50;99.90;;;;;;5031680;28;20186;-66
2022/09/29 04:19:18;;;;;;;7.60;5.80;;;7.50;99.90;;;;;;5036934;28;20206;-64
2022/09/29 04:21:44;;;;;;;7.30;5.90;;;7.40;99.90;;;;;;5037184;28;20182;-64
2022/09/29 04:24:10;;;;;;;6.10;5.03;;;7.40;99.90;;;;;;5025649;28;20194;-64
2022/09/29 04:26:35;;;;;;;6.30;4.47;;;7.40;99.90;;;;;;5029141;28;20956;-64
2022/09/29 04:29:01;;;;;;;3.77;3.47;;;7.30;99.90;;;;;;5030541;28;20678;-64
2022/09/29 04:31:27;;;;;;;9.90;4.03;;;7.30;99.90;;;;;;5031023;28;20185;-64
2022/09/29 04:33:53;;;;;;;5.23;4.73;;;7.30;99.90;;;;;;5032790;28;20277;-64
2022/09/29 04:36:18;;;;;;;4.30;3.83;;;7.30;99.90;;;;;;5033019;28;20448;-64
2022/09/29 04:38:44;;;;;;;6.80;4.30;;;7.30;99.90;;;;;;5032173;28;20240;-64
2022/09/29 04:41:09;;;;;;;4.00;3.60;;;7.30;99.90;;;;;;5032577;28;20174;-64
2022/09/29 04:43:35;;;;;;;4.70;4.30;;;7.30;99.90;;;;;;5032289;28;20182;-64
2022/09/29 04:46:05;;;;;;;8.10;6.60;;;7.30;99.90;;;;;;5032847;28;20166;-64
2022/09/29 04:48:31;;;;;;;12.60;6.40;;;7.20;99.90;;;;;;5032005;28;20170;-64
2022/09/29 04:50:56;;;;;;;5.83;5.10;;;7.20;99.90;;;;;;5032747;28;20926;-64
2022/09/29 04:53:22;;;;;;;4.63;3.87;;;7.20;99.90;;;;;;5032611;28;20182;-64
2022/09/29 04:55:47;;;;;;;5.20;4.70;;;7.20;99.90;;;;;;5032652;28;20189;-64
2022/09/29 04:58:13;;;;;;;6.77;5.77;;;7.20;99.90;;;;;;5031811;28;20170;-64
2022/09/29 05:00:39;;;;;;;6.07;5.50;;;7.20;99.90;;;;;;5032528;28;20198;-64
2022/09/29 05:03:05;;;;;;;6.30;5.70;;;7.30;99.90;;;;;;5032495;28;20934;-64
2022/09/29 05:05:30;;;;;;;7.70;5.80;;;7.30;99.90;;;;;;5032784;28;20166;-64
2022/09/29 05:07:58;;;;;;;6.67;5.27;;;7.20;99.90;;;;;;5032505;28;20180;-64
2022/09/29 05:10:24;;;;;;;5.80;5.07;;;7.20;99.90;;;;;;5031645;28;20170;-64
2022/09/29 05:12:50;;;;;;;8.50;7.37;;;7.20;99.90;;;;;;5032265;28;20903;-65
2022/09/29 05:15:17;;;;;;;6.83;5.10;;;7.30;99.90;;;;;;5032238;28;20463;-64
2022/09/29 05:17:43;;;;;;;6.13;5.30;;;7.30;99.90;;;;;;5032291;28;20413;-64
2022/09/29 05:20:09;;;;;;;6.17;5.57;;;7.30;99.90;;;;;;5031489;28;20462;-64
2022/09/29 05:22:35;;;;;;;6.30;5.70;;;7.30;99.90;;;;;;5032271;28;20605;-65
2022/09/29 05:25:00;;;;;;;7.40;6.00;;;7.30;99.90;;;;;;5032260;28;20532;-65
2022/09/29 05:27:26;;;;;;;5.27;4.77;;;7.30;99.90;;;;;;5032298;28;20673;-64
2022/09/29 05:29:51;;;;;;;6.17;5.37;;;7.30;99.90;;;;;;5030384;28;20174;-64
2022/09/29 05:32:17;;;;;;;7.10;6.13;;;7.30;99.90;;;;;;5032452;28;20744;-64
2022/09/29 05:34:43;;;;;;;6.63;5.57;;;7.30;99.90;;;;;;5032170;28;20208;-65
2022/09/29 05:37:09;;;;;;;5.50;4.97;;;7.40;99.90;;;;;;5032214;28;20174;-64
2022/09/29 05:39:36;;;;;;;6.57;5.23;;;7.50;99.90;;;;;;5031069;28;20198;-64
2022/09/29 05:42:02;;;;;;;9.50;5.77;;;7.50;99.90;;;;;;5031964;28;20413;-64
2022/09/29 05:44:28;;;;;;;8.13;5.97;;;7.40;99.90;;;;;;5032136;28;20511;-64
2022/09/29 05:46:53;;;;;;;6.90;6.20;;;7.40;99.90;;;;;;5031944;28;20413;-64
2022/09/29 05:49:19;;;;;;;7.00;6.30;;;7.50;99.90;;;;;;5031360;28;20273;-64
2022/09/29 05:51:44;;;;;;;6.20;5.60;;;7.40;99.90;;;;;;5031961;28;20175;-64
2022/09/29 05:54:10;;;;;;;5.57;5.17;;;7.50;99.90;;;;;;5031736;28;20717;-64
2022/09/29 05:56:36;;;;;;;6.70;5.97;;;7.60;99.90;;;;;;5034776;28;20288;-64
2022/09/29 05:59:01;;;;;;;6.80;5.73;;;7.50;99.90;;;;;;5026422;28;20201;-64
2022/09/29 06:01:27;;;;;;;7.70;7.10;;;7.50;99.90;;;;;;5035959;28;20706;-64
2022/09/29 06:03:56;;;;;;;9.60;5.57;;;7.50;99.90;;;;;;5035841;28;20595;-64
2022/09/29 06:06:24;;;;;;;5.80;5.30;;;7.50;99.90;;;;;;5035713;28;20651;-64
2022/09/29 06:08:50;;;;;;;6.97;5.90;;;7.50;99.90;;;;;;5035112;28;20448;-64
2022/09/29 06:11:19;;;;;;;10.37;6.37;;;7.50;99.90;;;;;;5035498;28;20832;-64
2022/09/29 06:13:46;;;;;;;6.23;5.70;;;7.50;99.90;;;;;;5017834;28;20523;-64
2022/09/29 06:16:13;;;;;;;6.73;6.00;;;7.60;99.90;;;;;;5035607;28;20537;-64
2022/09/29 06:18:39;;;;;;;7.87;5.87;;;7.60;99.90;;;;;;5034562;28;20419;-65
2022/09/29 06:21:17;;;;;;;9.77;6.10;;;7.80;99.90;;;;;;5035206;28;20542;-64
2022/09/29 06:23:43;;;;;;;11.70;6.43;;;7.90;99.90;;;;;;5035212;28;20483;-64
2022/09/29 06:26:11;;;;;;;11.30;6.20;;;8.10;99.90;;;;;;5035225;28;20413;-65
2022/09/29 06:28:37;;;;;;;10.80;6.77;;;8.10;99.90;;;;;;5034536;28;20470;-64
2022/09/29 06:31:09;;;;;;;8.30;6.23;;;8.20;99.90;;;;;;5034855;28;20510;-64
2022/09/29 06:33:35;;;;;;;6.70;5.40;;;8.30;99.90;;;;;;5035071;28;20586;-64
2022/09/29 06:38:59;;;;;;;10.27;6.80;;;8.30;99.90;;;;;;5034273;28;20796;-64
2022/09/29 06:41:28;;;;;;;8.00;5.90;;;8.40;99.90;;;;;;5034997;28;20409;-64
2022/09/29 06:43:55;;;;;;;13.13;6.60;;;8.30;99.90;;;;;;5034900;28;20261;-64
2022/09/29 06:46:21;;;;;;;6.80;6.20;;;8.20;99.90;;;;;;5034907;28;20412;-64
2022/09/29 06:48:46;;;;;;;8.00;7.20;;;8.30;99.90;;;;;;5034046;28;20507;-64
2022/09/29 06:51:13;;;;;;;11.57;7.77;;;8.40;99.90;;;;;;5035019;28;20563;-64
2022/09/29 06:53:39;;;;;;;7.17;6.43;;;8.50;99.90;;;;;;5034542;28;20209;-64
2022/09/29 06:56:06;;;;;;;7.30;5.90;;;8.60;99.90;;;;;;5034660;28;20417;-65
2022/09/29 06:58:31;;;;;;;15.53;6.97;;;8.60;99.90;;;;;;5033893;28;20174;-64
2022/09/29 07:01:00;;;;;;;7.20;6.60;;;8.80;99.90;;;;;;5034556;28;20832;-64
2022/09/29 07:03:27;;;;;;;8.90;6.17;;;8.80;99.90;;;;;;5034466;28;20274;-64
2022/09/29 07:05:52;;;;;;;6.97;6.30;;;8.90;99.90;;;;;;5034526;28;20421;-64
2022/09/29 07:08:17;;;;;;;10.67;6.13;;;9.00;99.90;;;;;;5015195;28;20417;-64
2022/09/29 07:10:45;;;;;;;9.60;7.27;;;9.10;99.90;;;;;;5034527;28;20178;-64
2022/09/29 07:13:10;;;;;;;8.53;7.73;;;9.10;99.90;;;;;;5034430;28;20261;-64
2022/09/29 07:15:36;;;;;;;9.27;7.03;;;9.20;99.90;;;;;;5034527;28;20897;-64
2022/09/29 07:18:03;;;;;;;8.13;6.43;;;9.30;99.90;;;;;;5034251;28;20201;-64
2022/09/29 07:20:30;;;;;;;8.33;7.43;;;9.40;99.90;;;;;;5033538;28;20865;-64
2022/09/29 07:22:56;;;;;;;6.43;5.43;;;9.60;99.90;;;;;;5016792;28;20444;-64
2022/09/29 07:25:23;;;;;;;9.10;6.40;;;9.80;99.90;;;;;;5034286;28;20523;-65
2022/09/29 07:27:50;;;;;;;7.03;6.37;;;9.80;99.90;;;;;;5034430;28;20853;-64
2022/09/29 07:30:16;;;;;;;9.63;6.63;;;9.90;99.90;;;;;;5033601;28;20420;-64
2022/09/29 07:32:41;;;;;;;7.60;6.50;;;9.90;99.90;;;;;;5034242;28;20969;-65
2022/09/29 07:35:07;;;;;;;6.43;5.80;;;10.00;99.90;;;;;;5034186;28;20519;-64
2022/09/29 07:37:33;;;;;;;8.27;7.53;;;9.90;99.90;;;;;;5034321;28;20190;-64
2022/09/29 07:39:58;;;;;;;6.23;5.67;;;10.00;99.90;;;;;;5033328;28;20402;-64
2022/09/29 07:42:24;;;;;;;5.37;4.97;;;10.10;99.90;;;;;;5034198;28;20661;-64
2022/09/29 07:44:49;;;;;;;6.53;5.93;;;10.10;99.90;;;;;;5033782;28;20187;-64
2022/09/29 07:47:15;;;;;;;7.43;6.70;;;10.20;99.90;;;;;;5033984;28;20178;-64
2022/09/29 07:49:40;;;;;;;7.30;6.60;;;10.10;99.90;;;;;;5033185;28;20170;-64
2022/09/29 07:52:07;;;;;;;7.10;6.37;;;10.20;99.90;;;;;;5033723;28;20182;-65
2022/09/29 07:54:32;;;;;;;6.47;5.80;;;10.40;99.90;;;;;;5033438;28;20210;-65
2022/09/29 07:56:59;;;;;;;8.07;6.80;;;10.70;99.90;;;;;;5033595;28;20507;-64
2022/09/29 07:59:26;;;;;;;5.57;5.07;;;11.00;99.90;;;;;;5032720;28;20243;-64
2022/09/29 08:01:52;;;;;;;6.83;5.60;;;11.30;99.90;;;;;;5033480;28;20417;-65
2022/09/29 08:04:17;;;;;;;8.03;5.57;;;11.60;99.90;;;;;;5033530;28;20507;-65
2022/09/29 08:06:43;;;;;;;7.43;5.77;;;11.80;99.90;;;;;;5033547;28;20174;-65
2022/09/29 08:09:09;;;;;;;5.57;5.13;;;11.80;99.90;;;;;;5032640;28;20178;-65
2022/09/29 08:11:39;;;;;;;6.90;6.17;;;12.10;99.90;;;;;;5033353;28;20176;-64
2022/09/29 08:14:05;;;;;;;8.80;5.80;;;12.10;99.90;;;;;;5033215;28;20259;-64
2022/09/29 08:16:33;;;;;;;7.57;5.90;;;12.20;99.90;;;;;;5033119;28;20482;-65
2022/09/29 08:18:59;;;;;;;6.97;5.67;;;12.20;99.90;;;;;;5031341;28;20421;-65
2022/09/29 08:21:25;;;;;;;5.57;5.07;;;12.10;99.90;;;;;;5015405;28;20421;-65
2022/09/29 08:23:51;;;;;;;5.50;4.40;;;12.10;99.90;;;;;;5033236;28;20847;-65
2022/09/29 08:26:19;;;;;;;5.70;5.20;;;11.90;99.90;;;;;;5015387;28;20559;-65
2022/09/29 08:28:45;;;;;;;6.03;4.80;;;12.00;99.90;;;;;;5032257;28;20564;-65
2022/09/29 08:31:13;;;;;;;4.63;4.10;;;12.30;99.90;;;;;;5032939;28;20504;-65
2022/09/29 08:33:38;;;;;;;5.10;4.70;;;12.60;99.90;;;;;;5032843;28;20532;-65
2022/09/29 08:36:13;;;;;;;6.30;5.03;;;12.80;99.90;;;;;;5032787;28;20504;-64
2022/09/29 08:38:41;;;;;;;7.50;3.97;;;12.90;99.90;;;;;;5032152;28;20189;-65
2022/09/29 08:41:32;;;;;;;5.47;4.97;;;13.10;99.90;;;;;;5032685;28;20460;-65
2022/09/29 08:44:28;;;;;;;5.40;4.90;;;13.00;99.90;;;;;;5032760;28;20437;-65
2022/09/29 08:46:59;;;;;;;4.90;4.13;;;13.40;99.90;;;;;;5032810;28;20779;-65
2022/09/29 08:49:44;;;;;;;4.57;4.17;;;13.80;99.90;;;;;;5031895;28;20451;-65
2022/09/29 08:52:15;;;;;;;6.30;5.23;;;13.60;99.90;;;;;;5032333;28;20425;-65
2022/09/29 08:54:43;;;;;;;5.70;5.20;;;13.40;99.90;;;;;;5032571;28;20874;-65
2022/09/29 08:57:17;;;;;;;7.10;5.70;;;13.30;99.90;;;;;;5032672;28;20515;-65
2022/09/29 08:59:57;;;;;;;4.50;4.10;;;13.30;99.90;;;;;;5031814;28;20482;-65
2022/09/29 09:02:41;;;;;;;4.57;4.00;;;13.50;99.90;;;;;;5032567;28;20427;-65
2022/09/29 09:05:34;;;;;;;8.00;6.10;;;14.60;99.90;;;;;;5032425;28;21034;-65
2022/09/29 09:08:17;;;;;;;7.83;4.07;;;15.60;99.90;;;;;;5032563;28;20964;-65
2022/09/29 09:10:59;;;;;;;6.73;4.10;;;15.60;99.90;;;;;;5032752;28;20941;-65
2022/09/29 09:13:58;;;;;;;5.40;3.60;;;15.40;99.90;;;;;;5032339;28;20412;-65
2022/09/29 09:16:58;;;;;;;5.47;4.83;;;15.80;99.90;;;;;;5032119;28;20437;-65
2022/09/29 09:19:44;;;;;;;4.20;3.90;;;16.10;99.90;;;;;;5031366;28;20449;-65
2022/09/29 09:22:24;;;;;;;3.33;3.00;;;15.00;99.90;;;;;;5032093;28;20495;-65
2022/09/29 09:25:00;;;;;;;4.37;3.97;;;14.40;99.90;;;;;;5031914;28;20433;-65
2022/09/29 09:27:37;;;;;;;3.60;3.30;;;14.30;99.90;;;;;;5032259;28;20846;-65
2022/09/29 09:30:15;;;;;;;4.53;3.30;;;14.10;99.90;;;;;;5031012;28;20424;-65
2022/09/29 09:32:49;;;;;;;7.43;5.13;;;13.70;99.90;;;;;;5031975;28;20424;-65
2022/09/29 09:35:23;;;;;;;5.13;3.40;;;13.80;99.90;;;;;;5031851;28;20498;-65
2022/09/29 09:37:50;;;;;;;4.73;3.73;;;14.10;99.90;;;;;;5031949;28;20504;-65
2022/09/29 09:40:28;;;;;;;3.30;3.10;;;14.00;99.90;;;;;;5031121;28;20460;-65
2022/09/29 09:43:01;;;;;;;9.70;4.03;;;14.10;99.90;;;;;;5031944;28;20436;-65
2022/09/29 09:45:38;;;;;;;3.47;2.90;;;14.00;99.90;;;;;;5031696;28;20844;-65
2022/09/29 09:48:18;;;;;;;5.77;2.40;;;13.80;99.90;;;;;;5031701;28;20457;-65
2022/09/29 09:50:46;;;;;;;5.70;4.77;;;14.20;99.90;;;;;;5031799;28;20486;-65
2022/09/29 09:53:28;;;;;;;2.93;2.73;;;14.60;99.90;;;;;;5031617;28;20429;-65
2022/09/29 09:56:23;;;;;;;2.63;2.37;;;14.70;99.90;;;;;;5032311;28;20917;-65
2022/09/29 09:59:35;;;;;;;4.00;2.87;;;14.70;99.90;;;;;;5030980;28;20516;-65
2022/09/29 10:02:01;;;;;;;2.63;2.43;;;14.60;99.90;;;;;;5030926;28;20448;-65
2022/09/29 10:04:27;;;;;;;2.83;2.63;;;15.30;99.90;;;;;;5031469;28;20437;-65
2022/09/29 10:06:53;;;;;;;3.50;2.80;;;15.60;99.90;;;;;;5031531;28;20190;-65
2022/09/29 10:09:19;;;;;;;3.47;3.17;;;15.00;99.90;;;;;;5031074;28;20549;-65
2022/09/29 10:11:45;;;;;;;3.30;3.00;;;14.30;99.90;;;;;;5031555;28;20421;-65
2022/09/29 10:14:18;;;;;;;2.70;2.50;;;14.10;99.90;;;;;;5031498;28;20194;-65
2022/09/29 10:17:06;;;;;;;2.50;2.30;;;14.20;99.90;;;;;;5031489;28;20181;-65
2022/09/29 10:19:53;;;;;;;3.60;2.93;;;14.10;99.90;;;;;;5030962;28;20464;-65
2022/09/29 10:22:19;;;;;;;2.77;2.00;;;14.00;99.90;;;;;;5031420;28;20769;-65
2022/09/29 10:24:45;;;;;;;2.73;2.10;;;14.70;99.90;;;;;;5031540;28;20815;-65
2022/09/29 10:27:19;;;;;;;2.90;2.57;;;15.00;99.90;;;;;;5031659;28;20409;-65
2022/09/29 10:29:51;;;;;;;2.93;2.00;;;15.40;99.90;;;;;;5030963;28;20584;-65
2022/09/29 10:32:35;;;;;;;2.10;2.00;;;15.90;99.90;;;;;;5031637;28;20429;-65
2022/09/29 10:35:26;;;;;;;4.53;2.43;;;17.00;99.90;;;;;;5031493;28;20474;-65
2022/09/29 10:38:01;;;;;;;3.23;1.80;;;17.40;99.90;;;;;;5031584;28;20436;-65
2022/09/29 10:40:26;;;;;;;3.50;2.60;;;18.40;99.90;;;;;;5030791;28;20570;-65
2022/09/29 10:42:52;;;;;;;2.07;1.90;;;19.20;99.90;;;;;;5032992;28;20998;-65
2022/09/29 10:45:22;;;;;;;2.70;2.50;;;19.70;99.90;;;;;;5034913;28;20274;-65
2022/09/29 10:47:56;;;;;;;8.87;7.97;;;19.50;99.90;;;;;;5034807;28;20225;-65
2022/09/29 10:50:25;;;;;;;3.10;2.17;;;18.70;99.90;;;;;;5034166;28;20502;-65
2022/09/29 10:52:59;;;;;;;2.60;1.80;;;19.20;99.90;;;;;;5034782;28;20498;-65
2022/09/29 10:55:31;;;;;;;2.40;2.20;;;18.90;99.90;;;;;;5034716;28;20460;-65
2022/09/29 10:57:59;;;;;;;2.53;1.53;;;18.90;99.10;;;;;;5034781;28;20425;-65
2022/09/29 11:00:30;;;;;;;1.97;1.87;;;18.30;99.90;;;;;;5034005;28;20460;-65
2022/09/29 11:03:15;;;;;;;2.13;1.93;;;18.80;99.90;;;;;;5034587;28;20417;-65
2022/09/29 11:05:52;;;;;;;2.03;1.93;;;19.20;99.90;;;;;;5034671;28;20420;-65
2022/09/29 11:08:24;;;;;;;2.53;1.80;;;20.50;97.00;;;;;;5033829;28;20428;-65
2022/09/29 11:11:01;;;;;;;5.13;2.60;;;20.20;96.40;;;;;;5034494;28;20429;-65
2022/09/29 11:13:38;;;;;;;4.17;3.03;;;19.00;97.50;;;;;;5034360;28;20487;-65
2022/09/29 11:16:18;;;;;;;2.10;1.90;;;18.50;99.90;;;;;;5034408;28;20421;-65
2022/09/29 11:18:48;;;;;;;1.80;1.70;;;18.60;99.90;;;;;;5033474;28;20471;-65
2022/09/29 11:21:20;;;;;;;2.77;1.77;;;19.10;99.10;;;;;;5034200;28;20456;-65
2022/09/29 11:24:00;;;;;;;2.03;1.87;;;19.20;97.80;;;;;;5034111;28;20440;-65
2022/09/29 11:26:42;;;;;;;2.47;2.17;;;19.10;98.20;;;;;;5034313;28;20444;-65
2022/09/29 11:29:28;;;;;;;4.00;1.60;;;18.90;98.90;;;;;;5033561;28;20615;-65
2022/09/29 11:32:21;;;;;;;4.43;2.03;;;19.90;96.20;;;;;;5033598;28;20425;-65
2022/09/29 11:35:17;;;;;;;2.00;1.73;;;19.60;96.10;;;;;;5033974;28;20487;-65
2022/09/29 11:37:48;;;;;;;1.90;1.80;;;20.10;94.70;;;;;;5033813;28;20487;-65
2022/09/29 11:40:37;;;;;;;3.13;1.97;;;20.90;92.10;;;;;;5015152;28;21001;-65
2022/09/29 11:43:21;;;;;;;3.53;1.67;;;20.30;91.90;;;;;;5033866;28;20459;-65
2022/09/29 11:46:20;;;;;;;2.17;1.90;;;19.80;93.80;;;;;;5033796;28;20460;-65
2022/09/29 11:48:45;;;;;;;2.77;2.00;;;19.70;93.90;;;;;;5032978;28;20416;-65
2022/09/29 11:51:31;;;;;;;2.00;1.80;;;19.10;94.20;;;;;;5033671;28;20417;-65
2022/09/29 11:54:16;;;;;;;2.20;1.97;;;19.60;93.00;;;;;;5033344;28;20216;-65
2022/09/29 11:57:03;;;;;;;1.90;1.63;;;19.70;93.30;;;;;;5016041;28;20433;-65
2022/09/29 11:59:54;;;;;;;1.87;1.77;;;18.90;94.20;;;;;;5032972;28;20543;-65
2022/09/29 12:02:58;;;;;;;2.67;2.47;;;18.00;96.50;;;;;;5033668;28;20501;-65
2022/09/29 12:05:33;;;;;;;3.00;1.83;;;17.50;97.90;;;;;;4953079;29;20448;-65
2022/09/29 12:08:14;;;;;;;6.13;2.30;;;17.40;99.90;;;;;;5023863;28;20989;-65
2022/09/29 12:11:09;;;;;;;2.60;2.40;;;17.30;99.90;;;;;;5033605;28;20499;-65
2022/09/29 12:13:50;;;;;;;2.57;1.83;;;17.10;99.90;;;;;;5033423;28;20463;-65
2022/09/29 12:16:27;;;;;;;4.70;2.13;;;17.00;99.90;;;;;;5033247;28;20432;-65
2022/09/29 12:19:09;;;;;;;5.10;2.30;;;17.40;99.90;;;;;;5032559;28;20786;-65
2022/09/29 12:21:46;;;;;;;2.00;1.40;;;17.90;99.60;;;;;;5033209;28;20862;-65
2022/09/29 12:24:37;;;;;;;2.13;1.40;;;17.90;99.20;;;;;;5033014;28;20836;-65
2022/09/29 12:27:10;;;;;;;2.57;1.73;;;18.10;98.00;;;;;;5021992;28;20463;-65
2022/09/29 12:29:47;;;;;;;3.57;2.30;;;18.70;97.30;;;;;;5032283;28;20425;-65
2022/09/29 12:32:27;;;;;;;4.10;1.90;;;19.00;96.50;;;;;;5032901;28;20433;-65
2022/09/29 12:34:59;;;;;;;1.87;1.73;;;19.40;94.90;;;;;;5032935;28;20451;-65
2022/09/29 12:37:53;;;;;;;2.43;1.60;;;19.50;95.20;;;;;;5033215;28;20785;-65
2022/09/29 12:40:31;;;;;;;2.30;2.00;;;19.10;94.30;;;;;;5032088;28;21103;-65
2022/09/29 12:43:07;;;;;;;2.13;1.93;;;19.00;95.00;;;;;;5032757;28;20416;-65
2022/09/29 12:46:10;;;;;;;3.10;2.90;;;18.60;95.40;;;;;;5032713;28;20835;-65
2022/09/29 12:48:46;;;;;;;2.80;2.27;;;17.80;96.90;;;;;;5031959;28;20430;-65
2022/09/29 12:51:49;;;;;;;3.83;2.23;;;17.40;99.60;;;;;;5014847;28;20424;-65
2022/09/29 12:54:37;;;;;;;2.10;1.90;;;17.70;97.70;;;;;;5032432;28;20514;-65
2022/09/29 12:57:25;;;;;;;2.10;1.90;;;17.60;98.20;;;;;;5032509;28;20508;-65
2022/09/29 13:00:17;;;;;;;3.53;2.00;;;17.40;98.20;;;;;;5031594;28;20465;-65
2022/09/29 13:02:52;;;;;;;3.20;2.07;;;17.20;99.00;;;;;;5032491;28;20417;-65
2022/09/29 13:05:37;;;;;;;3.37;1.90;;;17.40;99.40;;;;;;5031768;28;20488;-65
2022/09/29 13:08:38;;;;;;;2.33;1.80;;;17.60;98.70;;;;;;5032297;28;20456;-65
2022/09/29 13:11:43;;;;;;;3.27;2.03;;;17.70;99.50;;;;;;5032335;28;20952;-65
2022/09/29 13:14:38;;;;;;;4.23;2.00;;;17.40;99.60;;;;;;5032092;28;20440;-65
2022/09/29 13:17:21;;;;;;;1.87;1.77;;;16.70;99.60;;;;;;5031651;28;20485;-65
2022/09/29 13:20:01;;;;;;;2.97;2.27;;;16.70;99.90;;;;;;5031398;28;20452;-65
2022/09/29 13:22:36;;;;;;;2.80;2.60;;;16.60;99.90;;;;;;5032179;28;20408;-65